Time;durP1;ratioP1;P1;durP2;ratioP2;P2;SDS_P1;SDS_P2;PMS_P1;PMS_P2;Temp;Humidity;BMP_temperature;BMP_pressure;BME280_temperature;BME280_humidity;BME280_pressure;Samples;Min_cycle;Max_cycle;Signal;HPM_P1;HPM_P2
2021/04/20 00:00:28;;;;;;;37.28;21.73;;;;;;;6.95;100.00;101331.25;5067178;28;20822;-77
2021/04/20 00:02:53;;;;;;;45.13;23.85;;;;;;;6.95;100.00;101331.25;5064938;28;20111;-77
2021/04/20 00:05:19;;;;;;;49.75;26.35;;;;;;;6.96;100.00;101333.00;5076490;28;20047;-77
2021/04/20 00:07:45;;;;;;;47.05;26.40;;;;;;;6.98;100.00;101333.78;5069257;28;20123;-77
2021/04/20 00:10:14;;;;;;;49.75;27.25;;;;;;;6.99;100.00;101329.31;5071758;28;20025;-77
2021/04/20 00:12:40;;;;;;;48.70;26.95;;;;;;;6.97;100.00;101328.53;5051755;28;20060;-77
2021/04/20 00:15:09;;;;;;;54.63;28.17;;;;;;;6.92;100.00;101323.34;5071200;28;20416;-77
2021/04/20 00:17:34;;;;;;;53.20;29.10;;;;;;;6.91;100.00;101322.47;5067119;28;20393;-77
2021/04/20 00:20:00;;;;;;;56.17;29.15;;;;;;;6.91;100.00;101321.66;5049951;28;20039;-77
2021/04/20 00:22:25;;;;;;;55.42;29.98;;;;;;;6.88;100.00;101311.06;5070264;28;20038;-77
2021/04/20 00:24:51;;;;;;;56.03;28.73;;;;;;;6.85;100.00;101311.22;5067828;28;20032;-77
2021/04/20 00:27:16;;;;;;;55.33;28.42;;;;;;;6.83;100.00;101302.38;5066141;28;20036;-77
2021/04/20 00:29:41;;;;;;;52.15;28.15;;;;;;;6.82;100.00;101308.66;5051819;28;20028;-78
2021/04/20 00:32:07;;;;;;;56.70;29.25;;;;;;;6.80;100.00;101305.16;5051470;28;20040;-77
2021/04/20 00:34:33;;;;;;;60.00;31.95;;;;;;;6.79;100.00;101303.41;5070885;28;20035;-77
2021/04/20 00:36:58;;;;;;;52.90;29.10;;;;;;;6.76;100.00;101300.88;5063290;28;20128;-77
2021/04/20 00:39:23;;;;;;;53.58;29.13;;;;;;;6.73;100.00;101301.00;5068438;28;20456;-77
2021/04/20 00:42:00;;;;;;;49.67;27.67;;;;;;;6.64;100.00;101307.56;5057686;28;20437;-79
2021/04/20 00:44:25;;;;;;;50.90;27.58;;;;;;;6.56;100.00;101307.00;5064534;28;20035;-77
2021/04/20 00:46:50;;;;;;;53.20;28.08;;;;;;;6.53;100.00;101298.25;5064384;28;20032;-77
2021/04/20 00:49:16;;;;;;;64.10;32.72;;;;;;;6.53;100.00;101300.91;5061129;28;20753;-78
2021/04/20 00:51:41;;;;;;;55.75;28.55;;;;;;;6.49;100.00;101298.34;5060741;28;20472;-77
2021/04/20 00:54:07;;;;;;;53.42;29.45;;;;;;;6.48;100.00;101301.09;5059996;28;20037;-77
2021/04/20 00:56:32;;;;;;;55.78;30.13;;;;;;;6.44;100.00;101308.31;5063048;28;20139;-77
2021/04/20 00:58:58;;;;;;;52.45;28.10;;;;;;;6.37;100.00;101305.94;5066395;28;20512;-77
2021/04/20 01:01:23;;;;;;;55.22;27.02;;;;;;;6.28;100.00;101301.84;5068756;28;20120;-77
2021/04/20 01:03:49;;;;;;;54.35;28.17;;;;;;;6.22;100.00;101299.41;5064249;28;20044;-77
2021/04/20 01:06:14;;;;;;;53.72;28.17;;;;;;;6.22;100.00;101291.41;5060590;28;20570;-77
2021/04/20 01:08:41;;;;;;;54.85;27.95;;;;;;;6.24;100.00;101304.66;5067480;28;20170;-77
2021/04/20 01:11:07;;;;;;;56.55;28.80;;;;;;;6.24;100.00;101300.19;5065818;28;20044;-76
2021/04/20 01:13:34;;;;;;;49.53;26.75;;;;;;;6.26;100.00;101305.47;5064053;28;20039;-77
2021/04/20 01:16:00;;;;;;;47.42;25.55;;;;;;;6.21;100.00;101297.66;5065533;28;20025;-77
2021/04/20 01:18:33;;;;;;;49.90;26.00;;;;;;;6.19;100.00;101294.19;5071160;28;20417;-78
2021/04/20 01:21:03;;;;;;;49.83;25.45;;;;;;;6.17;100.00;101290.72;5070613;28;20058;-77
2021/04/20 01:23:40;;;;;;;50.97;26.60;;;;;;;6.17;100.00;101290.72;5075513;28;20033;-78
2021/04/20 01:26:07;;;;;;;54.05;28.30;;;;;;;6.18;100.00;101287.09;5061576;28;20125;-78
2021/04/20 01:28:34;;;;;;;58.88;29.67;;;;;;;6.18;100.00;101292.44;5069745;28;20078;-77
2021/04/20 01:31:00;;;;;;;52.97;29.38;;;;;;;6.17;100.00;101292.50;5070597;28;20476;-77
2021/04/20 01:33:26;;;;;;;51.63;27.30;;;;;;;6.08;100.00;101293.72;5071043;28;20036;-78
2021/04/20 01:35:51;;;;;;;47.50;25.88;;;;;;;5.97;100.00;101293.22;5068375;28;20036;-78
2021/04/20 01:38:18;;;;;;;50.60;27.60;;;;;;;5.88;100.00;101291.75;5067439;28;20029;-77
2021/04/20 01:40:43;;;;;;;44.58;22.30;;;;;;;5.77;100.00;101291.25;5070100;28;20032;-77
2021/04/20 01:43:12;;;;;;;38.72;20.48;;;;;;;5.62;100.00;101303.28;5069257;28;20047;-77
2021/04/20 01:45:39;;;;;;;36.42;20.92;;;;;;;5.52;100.00;101301.88;5062227;28;20483;-77
2021/04/20 01:48:05;;;;;;;28.33;17.70;;;;;;;5.44;100.00;101298.59;5069685;28;20045;-77
2021/04/20 01:50:31;;;;;;;28.13;17.48;;;;;;;5.41;100.00;101293.41;5070945;28;20016;-77
2021/04/20 01:52:56;;;;;;;33.38;19.13;;;;;;;5.34;100.00;101302.50;5065885;28;20071;-77
2021/04/20 01:55:22;;;;;;;41.50;23.27;;;;;;;5.35;100.00;101298.94;5069648;28;20042;-77
2021/04/20 01:57:52;;;;;;;48.13;26.10;;;;;;;5.34;100.00;101294.50;5066292;28;20036;-77
2021/04/20 02:00:19;;;;;;;48.45;27.00;;;;;;;5.35;100.00;101298.06;5063888;28;20063;-77
2021/04/20 02:02:46;;;;;;;53.53;27.13;;;;;;;5.40;100.00;101296.09;5063112;28;20063;-77
2021/04/20 02:05:12;;;;;;;60.38;30.02;;;;;;;5.43;100.00;101296.00;5071393;28;20017;-76
2021/04/20 02:07:38;;;;;;;52.45;28.17;;;;;;;5.45;100.00;101297.69;5068047;28;20029;-77
2021/04/20 02:10:07;;;;;;;49.35;25.70;;;;;;;5.47;100.00;101293.19;5071557;28;20119;-77
2021/04/20 02:12:34;;;;;;;58.85;29.63;;;;;;;5.47;100.00;101301.16;5071121;28;20046;-77
2021/04/20 02:15:00;;;;;;;65.30;31.63;;;;;;;5.43;100.00;101291.53;5067284;28;20066;-77
2021/04/20 02:17:27;;;;;;;62.22;30.83;;;;;;;5.43;100.00;101291.53;5076078;28;20040;-77
2021/04/20 02:19:53;;;;;;;62.55;31.02;;;;;;;5.44;100.00;101303.91;5067906;28;20036;-77
2021/04/20 02:22:19;;;;;;;61.28;31.10;;;;;;;5.41;100.00;101287.19;5071886;28;20093;-77
2021/04/20 02:24:44;;;;;;;64.03;29.13;;;;;;;5.38;100.00;101292.59;5048871;28;20452;-77
2021/04/20 02:27:11;;;;;;;61.45;31.02;;;;;;;5.36;100.00;101298.00;5062379;28;20040;-78
2021/04/20 02:29:37;;;;;;;62.83;30.98;;;;;;;5.35;100.00;101292.72;5063760;28;20044;-78
2021/04/20 02:32:03;;;;;;;59.63;30.00;;;;;;;5.33;100.00;101287.44;5071342;28;20036;-77
2021/04/20 02:34:28;;;;;;;57.25;28.25;;;;;;;5.31;100.00;101281.28;5067183;28;20036;-77
2021/04/20 02:36:54;;;;;;;60.75;30.80;;;;;;;5.34;100.00;101291.84;5066513;28;20037;-77
2021/04/20 02:39:20;;;;;;;52.33;27.45;;;;;;;5.28;100.00;101286.75;5068105;28;20568;-77
2021/04/20 02:41:48;;;;;;;49.38;26.15;;;;;;;5.22;100.00;101286.94;5054060;28;20024;-77
2021/04/20 02:44:14;;;;;;;48.05;24.77;;;;;;;5.12;100.00;101285.53;5069622;28;20016;-76
2021/04/20 02:46:41;;;;;;;43.75;24.98;;;;;;;5.09;100.00;101288.25;5058797;28;20028;-77
2021/04/20 02:49:11;;;;;;;51.80;27.00;;;;;;;5.10;100.00;101280.25;5069401;28;20036;-77
2021/04/20 02:51:39;;;;;;;49.05;26.77;;;;;;;5.12;100.00;101281.03;5069926;28;20024;-76
2021/04/20 02:54:06;;;;;;;63.72;31.45;;;;;;;5.15;100.00;101285.41;5065189;28;20037;-77
2021/04/20 02:56:34;;;;;;;60.35;30.38;;;;;;;5.18;100.00;101290.63;5067339;28;20020;-77
2021/04/20 02:59:03;;;;;;;59.22;30.65;;;;;;;5.19;100.00;101287.03;5066802;28;20029;-77
2021/04/20 03:01:31;;;;;;;62.90;31.40;;;;;;;5.17;100.00;101283.56;5069657;28;20123;-77
2021/04/20 03:03:57;;;;;;;62.67;31.23;;;;;;;5.15;100.00;101282.75;5050686;28;20043;-77
2021/04/20 03:06:23;;;;;;;60.85;29.73;;;;;;;5.15;100.00;101280.06;5068145;28;20642;-76
2021/04/20 03:08:50;;;;;;;65.13;32.20;;;;;;;5.17;100.00;101273.78;5068529;28;20029;-77
2021/04/20 03:11:24;;;;;;;64.70;32.10;;;;;;;5.18;100.00;101275.53;5055765;28;20039;-77
2021/04/20 03:13:50;;;;;;;81.22;36.65;;;;;;;5.19;100.00;101276.38;5068228;28;20079;-77
2021/04/20 03:16:16;;;;;;;81.65;37.97;;;;;;;5.13;100.00;101281.91;5060121;28;20411;-76
2021/04/20 03:18:43;;;;;;;55.15;27.00;;;;;;;5.05;100.00;101278.66;5068855;28;20451;-76
2021/04/20 03:21:14;;;;;;;53.60;26.38;;;;;;;4.95;100.00;101277.19;5062403;28;20397;-77
2021/04/20 03:23:41;;;;;;;55.35;25.00;;;;;;;4.83;100.00;101273.13;5046229;28;20794;-76
2021/04/20 03:26:32;;;;;;;87.88;27.23;;;;;;;4.75;100.00;101281.34;5071213;28;20077;-77
2021/04/20 03:29:00;;;;;;;97.35;26.52;;;;;;;4.68;100.00;101273.63;5071954;28;20051;-76
2021/04/20 03:31:26;;;;;;;104.22;27.70;;;;;;;4.66;100.00;101280.78;5064618;28;20028;-77
2021/04/20 03:34:05;;;;;;;89.50;28.13;;;;;;;4.62;100.00;101279.16;5068299;28;20038;-76
2021/04/20 03:36:33;;;;;;;144.85;32.33;;;;;;;4.57;100.00;101276.59;5062426;28;20032;-77
2021/04/20 03:39:06;;;;;;;67.43;31.05;;;;;;;4.51;100.00;101276.78;5076369;28;20430;-76
2021/04/20 03:41:39;;;;;;;82.75;33.90;;;;;;;4.48;100.00;101271.59;5069060;28;20028;-76
2021/04/20 03:44:09;;;;;;;153.02;33.20;;;;;;;4.46;100.00;101276.06;5056770;28;20040;-77
2021/04/20 03:46:41;;;;;;;163.50;34.03;;;;;;;4.42;100.00;101271.78;5064893;28;20481;-77
2021/04/20 03:49:14;;;;;;;167.43;34.67;;;;;;;4.37;100.00;101269.25;5067641;28;20538;-77
2021/04/20 03:51:42;;;;;;;;;;;;;;;4.36;100.00;101266.63;5070517;28;20400;-77
2021/04/20 03:54:10;;;;;;;79.18;33.30;;;;;;;4.32;100.00;101272.97;5069485;28;20406;-78
2021/04/20 03:56:39;;;;;;;60.83;32.42;;;;;;;4.32;100.00;101270.31;5067517;28;20693;-76
2021/04/20 03:59:06;;;;;;;59.42;31.63;;;;;;;4.38;100.00;101268.31;5060454;28;20365;-76
2021/04/20 04:01:37;;;;;;;54.90;29.77;;;;;;;4.45;100.00;101266.34;5069218;28;20134;-76
2021/04/20 04:04:07;;;;;;;49.75;29.00;;;;;;;4.50;100.00;101269.75;5067407;28;20534;-76
2021/04/20 04:06:36;;;;;;;49.53;28.17;;;;;;;4.49;100.00;101273.34;5067333;28;20032;-77
2021/04/20 04:09:02;;;;;;;71.85;30.85;;;;;;;4.46;100.00;101265.44;5071198;28;20049;-77
2021/04/20 04:11:32;;;;;;;82.55;30.88;;;;;;;4.45;100.00;101271.66;5075476;28;20428;-78
2021/04/20 04:14:01;;;;;;;85.72;33.35;;;;;;;4.43;100.00;101276.19;5073340;28;20039;-76
2021/04/20 04:16:27;;;;;;;120.63;32.60;;;;;;;4.42;100.00;101266.44;5059128;28;20036;-77
2021/04/20 04:18:55;;;;;;;121.35;31.10;;;;;;;4.40;100.00;101265.63;5073793;28;20078;-76
2021/04/20 04:21:25;;;;;;;101.95;30.25;;;;;;;4.37;100.00;101263.94;5062554;28;20679;-76
2021/04/20 04:23:55;;;;;;;76.03;29.92;;;;;;;4.40;100.00;101266.50;5065675;28;20068;-77
2021/04/20 04:26:29;;;;;;;58.25;33.30;;;;;;;4.40;100.00;101268.28;5068796;28;20425;-76
2021/04/20 04:28:59;;;;;;;57.70;31.02;;;;;;;4.43;100.00;101263.75;5070295;28;20567;-76
2021/04/20 04:31:27;;;;;;;61.05;34.50;;;;;;;4.48;100.00;101266.28;5072705;28;20063;-77
2021/04/20 04:33:54;;;;;;;62.97;35.03;;;;;;;4.49;100.00;101273.34;5070504;28;20037;-77
2021/04/20 04:36:21;;;;;;;61.80;32.38;;;;;;;4.51;100.00;101270.59;5067987;28;20039;-77
2021/04/20 04:38:46;;;;;;;72.22;34.42;;;;;;;4.54;100.00;101266.06;5069586;28;20111;-77
2021/04/20 04:41:12;;;;;;;79.47;33.97;;;;;;;4.53;100.00;101264.34;5066544;28;20120;-76
2021/04/20 04:43:40;;;;;;;79.00;33.65;;;;;;;4.49;100.00;101268.00;5072650;28;20056;-77
2021/04/20 04:46:06;;;;;;;135.50;33.08;;;;;;;4.46;100.00;101273.41;5067314;28;20040;-78
2021/04/20 04:48:32;;;;;;;129.05;28.90;;;;;;;4.37;100.00;101279.00;5072948;28;20070;-77
2021/04/20 04:51:01;;;;;;;56.92;27.88;;;;;;;4.26;100.00;101252.75;5063464;28;20032;-77
2021/04/20 04:53:28;;;;;;;57.33;29.63;;;;;;;4.30;100.00;101261.50;5067709;28;20028;-77
2021/04/20 04:55:56;;;;;;;73.32;27.42;;;;;;;4.34;100.00;101264.03;5068938;28;20040;-77
2021/04/20 04:58:25;;;;;;;78.30;29.98;;;;;;;4.36;100.00;101269.28;5064439;28;20122;-77
2021/04/20 05:00:51;;;;;;;64.70;30.38;;;;;;;4.38;100.00;101270.13;5071359;28;20036;-76
2021/04/20 05:03:17;;;;;;;67.68;28.85;;;;;;;4.39;100.00;101271.84;5062920;28;20032;-76
2021/04/20 05:05:44;;;;;;;56.20;29.00;;;;;;;4.43;100.00;101266.41;5071263;28;20485;-76
2021/04/20 05:08:10;;;;;;;69.38;27.30;;;;;;;4.48;100.00;101266.28;5068293;28;20623;-76
2021/04/20 05:10:35;;;;;;;62.65;29.27;;;;;;;4.48;100.00;101277.78;5052816;28;20031;-76
2021/04/20 05:13:01;;;;;;;58.28;27.98;;;;;;;4.52;100.00;101278.53;5071210;28;20037;-77
2021/04/20 05:15:28;;;;;;;84.90;29.98;;;;;;;4.56;100.00;101277.56;5066197;28;20060;-76
2021/04/20 05:17:54;;;;;;;97.35;30.40;;;;;;;4.60;100.00;101278.31;5061095;28;20020;-76
2021/04/20 05:20:20;;;;;;;104.70;31.58;;;;;;;4.61;100.00;101274.75;5067284;28;20029;-77
2021/04/20 05:22:48;;;;;;;70.68;31.77;;;;;;;4.60;100.00;101278.31;5053847;28;20051;-76
2021/04/20 05:25:16;;;;;;;95.10;32.30;;;;;;;4.65;100.00;101279.91;5066312;28;20029;-77
2021/04/20 05:27:43;;;;;;;83.47;33.55;;;;;;;4.70;100.00;101285.94;5048776;28;20090;-77
2021/04/20 05:30:11;;;;;;;98.78;34.45;;;;;;;4.77;100.00;101276.00;5064787;28;20559;-76
2021/04/20 05:32:38;;;;;;;74.22;32.17;;;;;;;4.82;100.00;101274.06;5064158;28;20040;-77
2021/04/20 05:35:05;;;;;;;152.23;33.80;;;;;;;4.89;100.00;101281.78;5068700;28;20052;-77
2021/04/20 05:37:34;;;;;;;95.75;38.30;;;;;;;4.97;100.00;101278.88;5068141;28;20047;-77
2021/04/20 05:40:08;;;;;;;88.40;36.97;;;;;;;5.03;100.00;101272.50;5045184;28;20060;-77
2021/04/20 05:42:35;;;;;;;99.63;38.97;;;;;;;5.10;100.00;101271.38;5049884;28;20475;-76
2021/04/20 05:45:00;;;;;;;118.18;38.22;;;;;;;5.18;100.00;101272.88;5070668;28;20036;-76
2021/04/20 05:47:26;;;;;;;96.55;35.97;;;;;;;5.25;100.00;101270.84;5050644;28;20128;-77
2021/04/20 05:50:03;;;;;;;122.95;38.42;;;;;;;5.32;100.00;101277.72;5066419;28;20028;-76
2021/04/20 05:52:32;;;;;;;76.85;34.58;;;;;;;5.39;100.00;101283.72;5068923;28;20048;-76
2021/04/20 05:54:58;;;;;;;82.15;34.85;;;;;;;5.43;100.00;101282.69;5069399;28;20119;-76
2021/04/20 05:57:24;;;;;;;194.23;35.10;;;;;;;5.51;100.00;101278.84;5067620;28;20116;-76
2021/04/20 05:59:55;;;;;;;108.53;33.70;;;;;;;5.53;100.00;101282.31;5068967;28;20034;-76
2021/04/20 06:02:21;;;;;;;131.73;34.83;;;;;;;5.55;100.00;101280.50;5068404;28;20029;-76
2021/04/20 06:04:52;;;;;;;122.10;36.40;;;;;;;5.63;100.00;101281.06;5067249;28;20405;-76
2021/04/20 06:07:18;;;;;;;168.88;37.67;;;;;;;5.70;100.00;101284.38;5065890;28;20402;-77
2021/04/20 06:09:44;;;;;;;145.30;37.05;;;;;;;5.83;100.00;101279.50;5066712;28;20024;-76
2021/04/20 06:12:11;;;;;;;63.92;34.97;;;;;;;5.91;100.00;101290.78;5050667;28;20040;-76
2021/04/20 06:14:38;;;;;;;67.22;34.65;;;;;;;5.97;100.00;101298.56;5067791;28;20028;-76
2021/04/20 06:17:07;;;;;;;120.05;36.72;;;;;;;6.20;100.00;101290.59;5068088;28;20071;-76
2021/04/20 06:19:32;;;;;;;108.13;36.17;;;;;;;6.28;100.00;101293.84;5067004;28;20485;-76
2021/04/20 06:21:59;;;;;;;183.90;37.55;;;;;;;6.29;100.00;101292.94;5065738;28;20060;-76
2021/04/20 06:24:25;;;;;;;94.57;39.13;;;;;;;6.32;100.00;101292.78;5069124;28;20024;-76
2021/04/20 06:26:50;;;;;;;76.07;37.22;;;;;;;6.48;100.00;101290.44;5063446;28;20028;-77
2021/04/20 06:29:16;;;;;;;116.63;36.67;;;;;;;6.56;100.00;101288.31;5080147;28;20411;-76
2021/04/20 06:31:41;;;;;;;154.02;39.63;;;;;;;6.67;100.00;101290.56;5068654;28;20519;-76
2021/04/20 06:34:07;;;;;;;161.52;40.08;;;;;;;6.73;100.00;101290.31;5069456;28;20040;-77
2021/04/20 06:36:33;;;;;;;88.40;39.17;;;;;;;6.77;100.00;101295.50;5063975;28;20036;-76
2021/04/20 06:38:59;;;;;;;80.93;37.75;;;;;;;6.82;100.00;101292.63;5071939;28;20048;-76
2021/04/20 06:41:29;;;;;;;105.32;38.85;;;;;;;6.93;100.00;101287.75;5071626;28;20032;-76
2021/04/20 06:44:09;;;;;;;111.05;39.97;;;;;;;7.05;100.00;101291.72;5059866;28;20036;-76
2021/04/20 06:46:59;;;;;;;90.60;36.60;;;;;;;7.15;100.00;101290.41;5066014;28;20520;-76
2021/04/20 06:49:32;;;;;;;80.50;39.60;;;;;;;7.27;100.00;101298.78;5072129;28;20025;-76
2021/04/20 06:52:03;;;;;;;121.70;38.28;;;;;;;7.35;100.00;101294.91;5067593;28;20036;-76
2021/04/20 06:54:33;;;;;;;143.68;37.13;;;;;;;7.39;100.00;101297.41;5067150;28;20041;-76
2021/04/20 06:57:22;;;;;;;81.75;38.20;;;;;;;7.45;100.00;101290.94;5065263;28;20040;-76
2021/04/20 07:00:07;;;;;;;94.40;42.60;;;;;;;7.65;100.00;101294.47;5060821;28;20457;-76
2021/04/20 07:02:48;;;;;;;90.13;42.17;;;;;;;7.84;100.00;101289.19;5065632;28;20126;-76
2021/04/20 07:05:23;;;;;;;98.55;42.85;;;;;;;8.07;100.00;101297.09;5066492;28;20482;-76
2021/04/20 07:08:22;;;;;;;86.22;43.40;;;;;;;8.29;100.00;101299.66;5066133;28;20174;-76
2021/04/20 07:10:50;;;;;;;93.45;42.33;;;;;;;8.36;100.00;101300.28;5084225;28;20560;-77
2021/04/20 07:13:28;;;;;;;100.85;47.83;;;;;;;8.34;100.00;101294.13;5066284;28;20116;-77
2021/04/20 07:15:58;;;;;;;92.55;44.33;;;;;;;8.38;100.00;101301.09;5037622;28;20619;-77
2021/04/20 07:19:00;;;;;;;89.40;43.72;;;;;;;8.48;100.00;101302.38;5068241;28;20078;-76
2021/04/20 07:21:32;;;;;;;84.63;40.80;;;;;;;8.68;100.00;101298.78;5067282;28;20028;-76
2021/04/20 07:24:15;;;;;;;79.97;38.85;;;;;;;8.69;100.00;101301.41;5067553;28;20677;-76
2021/04/20 07:26:58;;;;;;;89.85;41.80;;;;;;;8.82;100.00;101297.19;5068860;28;20039;-77
2021/04/20 07:29:47;;;;;;;88.22;41.30;;;;;;;9.10;100.00;101295.84;5065432;28;20033;-76
2021/04/20 07:32:31;;;;;;;83.68;42.03;;;;;;;9.49;100.00;101293.00;5068943;28;20064;-76
2021/04/20 07:35:07;;;;;;;105.75;48.60;;;;;;;10.20;100.00;101291.94;5069284;28;20051;-76
2021/04/20 07:37:46;;;;;;;87.07;43.78;;;;;;;11.07;100.00;101292.47;5065122;28;20028;-77
2021/04/20 07:40:31;;;;;;;81.20;42.53;;;;;;;11.96;99.62;101300.63;5063014;28;20115;-77
2021/04/20 07:43:16;;;;;;;72.97;39.85;;;;;;;12.65;94.48;101297.22;5073634;28;20386;-76
2021/04/20 07:46:07;;;;;;;74.15;39.58;;;;;;;13.13;88.85;101311.19;5069801;28;20028;-77
2021/04/20 07:48:41;;;;;;;75.38;40.35;;;;;;;13.57;87.68;101309.09;5064404;28;20125;-77
2021/04/20 07:51:38;;;;;;;65.10;37.75;;;;;;;13.93;84.86;101297.63;5068960;28;20036;-77
2021/04/20 07:54:45;;;;;;;61.00;35.45;;;;;;;14.14;83.58;101303.34;5070417;28;20508;-77
2021/04/20 07:57:19;;;;;;;60.33;33.78;;;;;;;14.34;82.93;101299.25;5070664;28;20088;-76
2021/04/20 08:00:04;;;;;;;62.67;33.25;;;;;;;14.70;80.68;101301.19;5068587;28;20037;-77
2021/04/20 08:02:37;;;;;;;61.33;35.58;;;;;;;14.96;77.92;101305.56;5068953;28;20492;-78
2021/04/20 08:05:41;;;;;;;59.67;35.67;;;;;;;15.40;76.95;101307.69;5054015;28;20064;-77
2021/04/20 08:08:14;;;;;;;55.55;33.13;;;;;;;15.71;74.64;101306.28;5067138;28;20037;-77
2021/04/20 08:10:51;;;;;;;62.63;36.70;;;;;;;15.75;75.56;101302.34;5072410;28;20153;-77
2021/04/20 08:13:23;;;;;;;53.35;33.05;;;;;;;16.14;75.05;101303.81;5065107;28;20028;-77
2021/04/20 08:15:54;;;;;;;57.47;35.03;;;;;;;16.43;72.20;101315.06;5071937;28;20040;-77
2021/04/20 08:18:34;;;;;;;62.00;37.33;;;;;;;16.37;74.10;101310.13;5062469;28;20033;-77
2021/04/20 08:21:03;;;;;;;62.72;34.67;;;;;;;16.56;70.23;101304.97;5065839;28;20075;-77
2021/04/20 08:23:31;;;;;;;62.78;36.50;;;;;;;16.91;70.27;101305.72;5067825;28;20060;-77
2021/04/20 08:26:09;;;;;;;62.80;37.97;;;;;;;16.81;70.14;101299.31;5067476;28;20029;-77
2021/04/20 08:29:03;;;;;;;60.88;36.28;;;;;;;16.90;70.86;101297.72;5063400;28;20136;-77
2021/04/20 08:31:55;;;;;;;64.60;36.60;;;;;;;17.30;70.43;101306.13;5061406;28;20749;-78
2021/04/20 08:34:33;;;;;;;67.00;37.30;;;;;;;17.49;67.29;101300.91;5068419;28;20024;-78
2021/04/20 08:37:01;;;;;;;64.82;37.53;;;;;;;17.71;67.06;101300.84;5070528;28;20481;-78
2021/04/20 08:39:49;;;;;;;69.60;40.30;;;;;;;17.66;65.30;101311.22;5053915;28;20028;-77
2021/04/20 08:42:23;;;;;;;61.97;37.58;;;;;;;17.74;63.96;101302.44;5065808;28;20055;-77
2021/04/20 08:45:10;;;;;;;65.40;38.58;;;;;;;17.54;66.21;101297.78;5068161;28;20048;-78
2021/04/20 08:47:55;;;;;;;66.07;37.47;;;;;;;17.76;64.07;101304.03;5081788;28;20036;-77
2021/04/20 08:50:24;;;;;;;64.38;38.15;;;;;;;17.78;66.58;101302.03;5067999;28;20336;-77
2021/04/20 08:53:27;;;;;;;62.33;37.03;;;;;;;17.92;63.19;101295.44;5068473;28;20032;-77
2021/04/20 08:56:08;;;;;;;61.30;37.28;;;;;;;17.90;64.04;101296.56;5069638;28;20447;-77
2021/04/20 08:58:57;;;;;;;66.00;37.47;;;;;;;18.27;62.59;101300.50;5068598;28;20155;-77
2021/04/20 09:01:42;;;;;;;65.53;36.60;;;;;;;18.67;60.35;101300.63;5081089;28;20028;-78
2021/04/20 09:04:45;;;;;;;60.13;34.85;;;;;;;18.61;62.97;101305.75;5068771;28;20122;-77
2021/04/20 09:07:26;;;;;;;63.20;38.00;;;;;;;18.68;60.11;101302.34;5070186;28;20031;-77
2021/04/20 09:09:53;;;;;;;58.38;35.70;;;;;;;18.52;61.28;101297.38;5070617;28;20028;-78
2021/04/20 09:12:22;;;;;;;60.38;35.97;;;;;;;18.61;62.58;101300.31;5065133;28;20059;-77
2021/04/20 09:14:49;;;;;;;55.63;33.10;;;;;;;18.48;61.27;101298.66;5067216;28;20056;-78
2021/04/20 09:17:18;;;;;;;60.38;33.60;;;;;;;18.62;60.71;101296.59;5066587;28;20029;-77
2021/04/20 09:19:51;;;;;;;52.88;33.22;;;;;;;18.81;59.60;101296.69;5071135;28;20024;-77
2021/04/20 09:22:40;;;;;;;50.83;31.55;;;;;;;18.92;58.33;101304.75;5070500;28;20036;-78
2021/04/20 09:25:13;;;;;;;46.67;28.95;;;;;;;19.09;57.03;101300.47;5064634;28;20066;-78
2021/04/20 09:27:44;;;;;;;;;;;;;;;18.98;56.03;101304.19;5070655;28;20037;-78
2021/04/20 09:30:17;;;;;;;42.05;26.42;;;;;;;18.99;54.98;101306.78;5070863;28;19974;-79
2021/04/20 09:32:53;;;;;;;45.88;26.38;;;;;;;19.04;57.02;101300.91;5071363;28;20063;-77
2021/04/20 09:35:20;;;;;;;45.65;27.38;;;;;;;19.15;55.97;101303.50;5066125;28;20116;-77
2021/04/20 09:37:48;;;;;;;37.42;22.88;;;;;;;19.45;55.96;101304.41;5067500;28;20099;-79
2021/04/20 09:40:16;;;;;;;42.67;23.30;;;;;;;19.34;53.58;101306.28;5069425;28;20028;-77
2021/04/20 09:42:54;;;;;;;37.47;20.83;;;;;;;19.42;49.80;101312.88;5052831;28;20442;-78
2021/04/20 09:45:33;;;;;;;37.45;22.35;;;;;;;19.02;49.70;101300.16;5072968;28;20044;-77
2021/04/20 09:48:15;;;;;;;30.20;19.15;;;;;;;18.91;52.08;101297.56;5056739;28;20067;-78
2021/04/20 09:51:09;;;;;;;30.05;19.40;;;;;;;18.77;47.30;101306.97;5076287;28;20035;-78
2021/04/20 09:53:55;;;;;;;27.33;18.25;;;;;;;18.72;49.82;101302.94;5072533;28;20040;-77
2021/04/20 09:56:49;;;;;;;31.15;19.75;;;;;;;18.78;50.98;101310.53;5051444;28;20405;-78
2021/04/20 09:59:23;;;;;;;30.40;18.48;;;;;;;18.87;50.07;101301.56;5073175;28;20027;-77
2021/04/20 10:01:58;;;;;;;28.35;18.52;;;;;;;18.99;48.83;101305.91;5053066;28;20905;-78
2021/04/20 10:04:39;;;;;;;30.30;17.48;;;;;;;18.98;48.69;101298.75;5078691;28;20029;-77
2021/04/20 10:07:08;;;;;;;28.58;16.50;;;;;;;18.77;49.32;101301.53;5068449;28;20124;-77
2021/04/20 10:09:42;;;;;;;29.52;17.67;;;;;;;18.67;50.95;101299.75;5069866;28;20477;-78
2021/04/20 10:12:37;;;;;;;33.00;17.33;;;;;;;18.93;53.12;101303.75;5050243;28;20033;-78
2021/04/20 10:15:29;;;;;;;26.13;15.57;;;;;;;18.96;51.53;101298.00;5071058;28;20515;-77
2021/04/20 10:18:04;;;;;;;25.30;16.15;;;;;;;19.00;49.10;101296.75;5065886;28;20036;-78
2021/04/20 10:20:52;;;;;;;27.30;16.65;;;;;;;18.48;51.31;101289.63;5059314;28;20145;-77
2021/04/20 10:23:36;;;;;;;26.02;16.88;;;;;;;18.14;51.03;101292.59;5065101;28;20028;-78
2021/04/20 10:26:26;;;;;;;28.50;17.58;;;;;;;17.96;50.85;101293.34;5072095;28;20037;-77
2021/04/20 10:28:54;;;;;;;27.52;16.50;;;;;;;18.15;52.95;101286.16;5054227;28;20071;-76
2021/04/20 10:31:28;;;;;;;27.75;17.00;;;;;;;18.65;51.32;101290.88;5072130;28;20400;-78
2021/04/20 10:33:55;;;;;;;26.88;16.17;;;;;;;18.78;47.77;101283.34;5069806;28;20029;-78
2021/04/20 10:36:24;;;;;;;26.60;16.92;;;;;;;18.58;51.57;101282.41;5069360;28;20060;-77
2021/04/20 10:38:53;;;;;;;25.92;16.75;;;;;;;18.13;52.13;101280.00;5071897;28;20115;-77
2021/04/20 10:41:30;;;;;;;28.00;17.08;;;;;;;18.14;51.71;101284.44;5066964;28;20052;-76
2021/04/20 10:43:56;;;;;;;24.15;14.15;;;;;;;18.35;49.31;101273.53;5071281;28;20119;-77
2021/04/20 10:46:25;;;;;;;23.90;14.10;;;;;;;18.77;47.27;101284.34;5070221;28;20043;-77
2021/04/20 10:48:55;;;;;;;24.85;15.05;;;;;;;18.54;47.01;101279.06;5057483;28;20036;-78
2021/04/20 10:51:30;;;;;;;19.30;13.85;;;;;;;18.73;47.34;101277.47;5069098;28;20036;-78
2021/04/20 10:53:57;;;;;;;22.05;13.48;;;;;;;18.61;44.22;101281.28;5071481;28;20119;-78
2021/04/20 10:56:24;;;;;;;21.63;13.52;;;;;;;18.85;45.56;101270.91;5070489;28;20413;-77
2021/04/20 10:58:55;;;;;;;17.83;12.48;;;;;;;18.92;45.07;101263.94;5077055;28;20034;-78
2021/04/20 11:01:22;;;;;;;23.60;13.63;;;;;;;19.10;45.98;101269.56;5063386;28;20041;-77
2021/04/20 11:03:50;;;;;;;21.85;13.60;;;;;;;19.24;44.88;101271.88;5069135;28;20486;-78
2021/04/20 11:06:35;;;;;;;20.83;12.45;;;;;;;19.07;43.33;101267.97;5066563;28;20040;-78
2021/04/20 11:09:01;;;;;;;19.65;11.77;;;;;;;19.13;45.32;101262.00;5071914;28;20712;-77
2021/04/20 11:11:26;;;;;;;22.65;12.02;;;;;;;19.18;45.91;101261.56;5069714;28;20029;-77
2021/04/20 11:13:52;;;;;;;21.70;11.68;;;;;;;19.23;45.85;101259.25;5064320;28;20028;-78
2021/04/20 11:16:25;;;;;;;18.50;11.90;;;;;;;19.49;45.07;101265.91;5054833;28;20036;-78
2021/04/20 11:18:58;;;;;;;22.65;12.40;;;;;;;19.41;41.90;101268.44;5068288;28;20770;-78
2021/04/20 11:21:27;;;;;;;18.90;12.18;;;;;;;19.27;41.83;101269.72;5050977;28;20139;-78
2021/04/20 11:23:58;;;;;;;17.38;11.65;;;;;;;19.27;42.02;101269.72;5069554;28;20043;-78
2021/04/20 11:26:30;;;;;;;18.92;12.05;;;;;;;19.24;41.18;101263.72;5070599;28;20032;-77
2021/04/20 11:29:02;;;;;;;17.30;10.82;;;;;;;19.25;42.63;101255.41;5073567;28;20374;-78